createdAt,value
2023-06-23T00:01:40.535Z,25.98
2023-06-23T00:04:08.240Z,19.02
2023-06-23T00:06:35.631Z,15.82
2023-06-23T00:09:02.436Z,32.17
2023-06-23T00:11:29.546Z,31.73
2023-06-23T00:13:58.099Z,21.92
2023-06-23T00:16:24.891Z,24.33
2023-06-23T00:18:51.590Z,46.63
2023-06-23T00:21:20.990Z,45.03
2023-06-23T00:23:48.094Z,85.50
2023-06-23T00:26:14.898Z,33.65
2023-06-23T00:28:41.578Z,44.80
2023-06-23T00:31:08.275Z,23.50
2023-06-23T00:33:35.099Z,23.42
2023-06-23T00:36:01.817Z,12.73
2023-06-23T00:38:28.642Z,11.23
2023-06-23T00:40:55.373Z,15.27
2023-06-23T00:43:22.364Z,31.58
2023-06-23T00:45:50.683Z,47.22
2023-06-23T00:48:17.619Z,51.33
2023-06-23T00:50:44.420Z,37.05
2023-06-23T00:53:11.285Z,45.08
2023-06-23T00:55:38.842Z,40.35
2023-06-23T00:58:06.564Z,18.75
2023-06-23T01:00:33.262Z,28.85
2023-06-23T01:03:04.267Z,21.65
2023-06-23T01:05:38.698Z,20.00
2023-06-23T01:08:17.643Z,45.30
2023-06-23T01:11:03.837Z,30.83
2023-06-23T01:13:57.124Z,28.20
2023-06-23T01:16:34.264Z,11.45
2023-06-23T01:19:11.134Z,9.73
2023-06-23T01:21:49.941Z,11.95
2023-06-23T01:24:24.350Z,10.43
2023-06-23T01:27:14.476Z,12.00
2023-06-23T01:29:41.342Z,9.60
2023-06-23T01:32:19.156Z,9.90
2023-06-23T01:34:46.919Z,7.60
2023-06-23T01:37:19.183Z,14.32
2023-06-23T01:40:00.807Z,11.35
2023-06-23T01:42:31.013Z,11.40
2023-06-23T01:44:58.135Z,11.25
2023-06-23T01:47:35.846Z,12.40
2023-06-23T01:50:03.874Z,9.95
2023-06-23T01:52:30.769Z,10.52
2023-06-23T01:54:57.724Z,12.23
2023-06-23T01:57:24.517Z,14.05
2023-06-23T01:59:51.342Z,12.55
2023-06-23T02:02:18.035Z,32.05
2023-06-23T02:04:45.520Z,18.20
2023-06-23T02:07:12.628Z,18.10
2023-06-23T02:09:39.637Z,40.45
2023-06-23T02:12:07.752Z,46.55
2023-06-23T02:14:34.632Z,42.53
2023-06-23T02:17:01.325Z,69.40
2023-06-23T02:19:28.119Z,95.60
2023-06-23T02:21:55.088Z,27.05
2023-06-23T02:24:22.143Z,37.25
2023-06-23T02:26:48.927Z,33.28
2023-06-23T02:29:15.596Z,24.77
2023-06-23T02:31:42.294Z,38.22
2023-06-23T02:34:09.620Z,22.52
2023-06-23T02:36:43.621Z,24.55
2023-06-23T02:39:10.404Z,35.28
2023-06-23T02:41:37.036Z,67.10
2023-06-23T02:44:09.130Z,22.80
2023-06-23T02:46:37.083Z,23.15
2023-06-23T02:49:09.007Z,78.63
2023-06-23T02:51:36.034Z,75.57
2023-06-23T02:54:07.191Z,40.63
2023-06-23T02:56:34.508Z,61.97
2023-06-23T02:59:06.442Z,75.95
2023-06-23T03:01:34.876Z,70.50
2023-06-23T03:04:01.652Z,66.97
2023-06-23T03:06:28.414Z,97.90
2023-06-23T03:08:55.344Z,33.38
2023-06-23T03:11:22.138Z,37.97
2023-06-23T03:13:48.922Z,13.60
2023-06-23T03:16:50.846Z,34.00
2023-06-23T03:19:30.257Z,32.63
2023-06-23T03:22:18.498Z,16.23
2023-06-23T03:24:48.556Z,32.85
2023-06-23T03:27:15.333Z,17.15
2023-06-23T03:29:47.408Z,19.35
2023-06-23T03:32:16.451Z,14.48
2023-06-23T03:35:11.514Z,27.90
2023-06-23T03:37:43.544Z,16.63
2023-06-23T03:40:13.287Z,27.98
2023-06-23T03:42:42.767Z,9.63
2023-06-23T03:45:09.897Z,15.25
2023-06-23T03:47:36.647Z,16.58
2023-06-23T03:50:11.187Z,21.45
2023-06-23T03:52:38.770Z,33.50
2023-06-23T03:55:06.961Z,28.05
2023-06-23T03:57:33.710Z,49.55
2023-06-23T04:00:00.461Z,13.00
2023-06-23T04:02:27.380Z,17.67
2023-06-23T04:04:55.292Z,13.25
2023-06-23T04:07:22.194Z,14.75
2023-06-23T04:09:49.056Z,33.35
2023-06-23T04:12:16.700Z,24.88
2023-06-23T04:14:45.925Z,60.92
2023-06-23T04:17:12.913Z,21.75
2023-06-23T04:19:41.251Z,26.13
2023-06-23T04:22:08.612Z,30.42
2023-06-23T04:24:36.599Z,16.33
2023-06-23T04:27:04.566Z,18.77
2023-06-23T04:29:31.283Z,13.55
2023-06-23T04:31:58.072Z,16.48
2023-06-23T04:34:24.826Z,12.30
2023-06-23T04:37:08.116Z,13.55
2023-06-23T04:39:58.305Z,11.88
2023-06-23T04:42:26.678Z,19.35
2023-06-23T04:44:55.243Z,18.52
2023-06-23T04:47:24.007Z,13.90
2023-06-23T04:49:56.123Z,15.68
2023-06-23T04:52:23.052Z,14.73
2023-06-23T04:54:49.958Z,12.02
2023-06-23T04:57:18.966Z,14.00
2023-06-23T04:59:50.826Z,11.77
2023-06-23T05:02:17.607Z,11.20
2023-06-23T05:04:44.667Z,11.98
2023-06-23T05:07:12.920Z,13.68
2023-06-23T05:09:39.632Z,16.50
2023-06-23T05:12:06.941Z,14.15
2023-06-23T05:14:33.638Z,16.75
2023-06-23T05:17:01.071Z,14.90
2023-06-23T05:19:28.916Z,16.05
2023-06-23T05:21:55.685Z,12.68
2023-06-23T05:24:22.476Z,14.95
2023-06-23T05:26:49.150Z,15.70
2023-06-23T05:29:16.344Z,14.45
2023-06-23T05:31:43.265Z,19.75
2023-06-23T05:34:11.472Z,15.45
2023-06-23T05:36:38.261Z,15.48
2023-06-23T05:39:05.936Z,15.68
2023-06-23T05:41:32.584Z,14.75
2023-06-23T05:43:59.395Z,12.98
2023-06-23T05:46:26.370Z,19.70
2023-06-23T05:48:54.148Z,15.10
2023-06-23T05:51:29.941Z,12.68
2023-06-23T05:53:58.400Z,12.07
2023-06-23T05:56:34.148Z,13.55
2023-06-23T05:59:02.923Z,15.23
2023-06-23T06:01:30.484Z,12.85
2023-06-23T06:04:08.852Z,13.50
2023-06-23T06:06:36.550Z,13.43
2023-06-23T06:09:03.761Z,17.00
2023-06-23T06:11:30.611Z,16.02
2023-06-23T06:13:57.300Z,13.70
2023-06-23T06:16:24.075Z,12.25
2023-06-23T06:18:51.156Z,11.27
2023-06-23T06:21:17.885Z,13.95
2023-06-23T06:23:44.662Z,15.82
2023-06-23T06:26:11.729Z,13.95
2023-06-23T06:28:38.661Z,15.48
2023-06-23T06:31:05.406Z,13.88
2023-06-23T06:33:32.060Z,13.35
2023-06-23T06:36:04.426Z,16.20
2023-06-23T06:38:36.093Z,13.05
2023-06-23T06:41:04.746Z,14.68
2023-06-23T06:43:31.447Z,12.38
2023-06-23T06:45:58.281Z,15.52
2023-06-23T06:48:25.249Z,10.02
2023-06-23T06:50:52.003Z,16.00
2023-06-23T06:53:18.602Z,13.70
2023-06-23T06:55:45.561Z,12.85
2023-06-23T06:58:12.304Z,16.80
2023-06-23T07:00:38.942Z,17.17
2023-06-23T07:03:05.816Z,17.95
2023-06-23T07:05:32.519Z,12.65
2023-06-23T07:07:59.326Z,13.57
2023-06-23T07:10:26.203Z,11.75
2023-06-23T07:12:53.034Z,14.35
2023-06-23T07:15:19.774Z,13.27
2023-06-23T07:17:46.527Z,14.98
2023-06-23T07:20:13.254Z,12.57
2023-06-23T07:22:39.989Z,12.52
2023-06-23T07:25:06.983Z,9.88
2023-06-23T07:27:34.028Z,23.02
2023-06-23T07:30:00.824Z,10.07
2023-06-23T07:32:27.929Z,12.68
2023-06-23T07:34:55.079Z,13.63
2023-06-23T07:37:21.749Z,12.43
2023-06-23T07:39:48.509Z,11.20
2023-06-23T07:42:15.287Z,14.15
2023-06-23T07:44:42.060Z,11.98
2023-06-23T07:47:09.812Z,18.30
2023-06-23T07:49:37.834Z,10.77
2023-06-23T07:52:05.795Z,10.50
2023-06-23T07:54:32.566Z,11.27
2023-06-23T07:56:59.607Z,11.63
2023-06-23T07:59:28.968Z,12.50
2023-06-23T08:01:55.898Z,11.07
2023-06-23T08:04:24.082Z,9.07
2023-06-23T08:06:51.207Z,11.77
2023-06-23T08:09:17.862Z,12.57
2023-06-23T08:11:44.708Z,11.75
2023-06-23T08:14:12.299Z,10.40
2023-06-23T08:16:39.190Z,13.82
2023-06-23T08:19:05.965Z,12.65
2023-06-23T08:21:32.578Z,11.95
2023-06-23T08:23:59.378Z,11.05
2023-06-23T08:26:26.143Z,9.13
2023-06-23T08:28:52.810Z,12.82
2023-06-23T08:31:19.513Z,10.73
2023-06-23T08:33:46.363Z,9.27
2023-06-23T08:36:13.154Z,10.35
2023-06-23T08:38:39.844Z,13.57
2023-06-23T08:41:06.886Z,10.25
2023-06-23T08:43:35.615Z,9.90
2023-06-23T08:46:03.843Z,12.93
2023-06-23T08:48:31.091Z,9.18
2023-06-23T08:51:01.629Z,13.23
2023-06-23T08:53:28.748Z,9.95
2023-06-23T08:55:55.888Z,10.55
2023-06-23T08:58:24.414Z,10.52
2023-06-23T09:00:52.472Z,12.32
2023-06-23T09:03:23.493Z,9.43
2023-06-23T09:05:50.317Z,11.13
2023-06-23T09:08:17.236Z,10.13
2023-06-23T09:10:44.284Z,8.75
2023-06-23T09:13:24.199Z,11.90
2023-06-23T09:16:01.399Z,10.23
2023-06-23T09:18:34.369Z,10.85
2023-06-23T09:21:03.007Z,11.00
2023-06-23T09:23:32.723Z,11.65
2023-06-23T09:26:00.577Z,10.63
2023-06-23T09:28:37.738Z,15.75
2023-06-23T09:31:16.743Z,11.20
2023-06-23T09:33:47.639Z,9.63
2023-06-23T09:36:14.374Z,10.65
2023-06-23T09:38:41.051Z,11.45
2023-06-23T09:41:11.704Z,8.15
2023-06-23T09:43:43.183Z,10.02
2023-06-23T09:46:12.769Z,8.70
2023-06-23T09:48:40.523Z,11.90
2023-06-23T09:51:07.645Z,10.00
2023-06-23T09:53:35.205Z,9.23
2023-06-23T09:56:02.210Z,10.98
2023-06-23T09:58:33.568Z,8.60
2023-06-23T10:01:02.363Z,11.13
2023-06-23T10:03:32.113Z,13.50
2023-06-23T10:05:59.894Z,7.15
2023-06-23T10:08:27.603Z,10.38
2023-06-23T10:10:54.413Z,11.00
2023-06-23T10:13:22.456Z,8.48
2023-06-23T10:15:49.204Z,6.28
2023-06-23T10:18:16.100Z,10.35
2023-06-23T10:20:42.910Z,9.68
2023-06-23T10:23:09.601Z,9.40
2023-06-23T10:25:39.081Z,6.30
2023-06-23T10:28:09.873Z,8.52
2023-06-23T10:30:36.798Z,8.52
2023-06-23T10:33:03.997Z,10.90
2023-06-23T10:35:31.355Z,10.93
2023-06-23T10:38:05.245Z,8.02
2023-06-23T10:40:40.230Z,6.40
2023-06-23T10:43:07.903Z,11.93
2023-06-23T10:45:34.835Z,11.05
2023-06-23T10:48:01.812Z,9.27
2023-06-23T10:50:31.178Z,14.88
2023-06-23T10:53:18.331Z,12.63
2023-06-23T10:56:06.743Z,17.05
2023-06-23T10:58:35.743Z,8.32
2023-06-23T11:01:02.584Z,7.50
2023-06-23T11:03:32.936Z,10.85
2023-06-23T11:06:01.661Z,7.38
2023-06-23T11:08:41.571Z,11.25
2023-06-23T11:11:09.293Z,9.40
2023-06-23T11:13:42.861Z,11.50
2023-06-23T11:16:14.081Z,10.10
2023-06-23T11:19:02.218Z,7.63
2023-06-23T11:21:41.759Z,9.45
2023-06-23T11:24:21.651Z,10.38
2023-06-23T11:27:01.002Z,7.88
2023-06-23T11:29:27.945Z,10.95
2023-06-23T11:32:08.072Z,8.40
2023-06-23T11:34:57.638Z,11.73
2023-06-23T11:37:28.619Z,13.75
2023-06-23T11:39:55.740Z,12.55
2023-06-23T11:42:23.027Z,8.48
2023-06-23T11:44:52.472Z,11.00
2023-06-23T11:47:33.112Z,10.43
2023-06-23T11:50:02.689Z,8.70
2023-06-23T11:52:29.443Z,9.85
2023-06-23T11:54:56.980Z,11.00
2023-06-23T11:57:24.386Z,13.98
2023-06-23T11:59:52.366Z,10.75
2023-06-23T12:02:19.160Z,11.45
2023-06-23T12:04:46.024Z,11.13
2023-06-23T12:07:13.988Z,9.30
2023-06-23T12:09:41.059Z,11.52
2023-06-23T12:12:13.827Z,9.63
2023-06-23T12:14:44.512Z,14.25
2023-06-23T12:17:12.416Z,10.20
2023-06-23T12:19:39.814Z,11.48
2023-06-23T12:22:14.487Z,10.88
2023-06-23T12:24:41.320Z,12.30
2023-06-23T12:27:10.058Z,10.15
2023-06-23T12:29:37.033Z,10.88
2023-06-23T12:32:04.237Z,10.15
2023-06-23T12:34:51.336Z,11.73
2023-06-23T12:37:18.894Z,9.20
2023-06-23T12:39:53.425Z,11.05
2023-06-23T12:42:20.852Z,10.45
2023-06-23T12:44:48.751Z,10.57
2023-06-23T12:47:15.399Z,10.02
2023-06-23T12:49:42.342Z,11.63
2023-06-23T12:52:11.974Z,9.40
2023-06-23T12:54:38.689Z,12.02
2023-06-23T12:57:05.622Z,10.20
2023-06-23T12:59:32.320Z,11.23
2023-06-23T13:02:00.917Z,10.50
2023-06-23T13:04:28.284Z,9.80
2023-06-23T13:06:55.145Z,14.98
2023-06-23T13:09:21.927Z,10.35
2023-06-23T13:33:06.901Z,12.45
2023-06-23T13:35:34.066Z,11.43
2023-06-23T13:38:01.129Z,8.90
2023-06-23T13:40:27.940Z,10.77
2023-06-23T13:42:54.664Z,11.50
2023-06-23T13:45:21.440Z,9.38
2023-06-23T13:47:48.180Z,8.88
2023-06-23T13:50:17.849Z,8.93
2023-06-23T13:52:44.829Z,9.80
2023-06-23T13:55:12.737Z,10.52
2023-06-23T13:57:40.029Z,8.73
2023-06-23T14:00:09.506Z,9.52
2023-06-23T14:02:36.432Z,9.93
2023-06-23T14:05:03.496Z,11.82
2023-06-23T14:07:30.336Z,10.48
2023-06-23T14:09:56.973Z,9.65
2023-06-23T14:12:23.698Z,11.32
2023-06-23T14:14:50.524Z,10.25
2023-06-23T14:17:20.128Z,17.42
2023-06-23T14:19:47.260Z,9.35
2023-06-23T14:22:14.029Z,10.52
2023-06-23T14:24:40.644Z,10.15
2023-06-23T14:27:07.773Z,10.40
2023-06-23T14:29:34.537Z,13.52
2023-06-23T14:32:01.289Z,12.43
2023-06-23T14:34:28.107Z,10.38
2023-06-23T14:36:54.994Z,11.43
2023-06-23T14:39:21.700Z,15.18
2023-06-23T14:41:48.416Z,16.65
2023-06-23T14:44:15.161Z,14.48
2023-06-23T14:46:42.014Z,11.45
2023-06-23T14:49:08.839Z,10.75
2023-06-23T14:51:35.594Z,9.10
2023-06-23T14:54:02.435Z,9.55
2023-06-23T14:56:29.399Z,15.95
2023-06-23T14:58:56.116Z,9.98
2023-06-23T15:01:22.907Z,15.18
2023-06-23T15:03:49.984Z,11.77
2023-06-23T15:06:17.553Z,10.73
2023-06-23T15:08:44.199Z,10.98
2023-06-23T15:11:10.919Z,9.43
2023-06-23T15:13:37.664Z,8.52
2023-06-23T15:16:04.400Z,11.05
2023-06-23T15:18:31.150Z,14.77
2023-06-23T15:20:57.851Z,8.13
2023-06-23T15:23:24.510Z,12.18
2023-06-23T15:25:51.315Z,9.60
2023-06-23T15:28:31.641Z,9.80
2023-06-23T15:30:58.785Z,14.27
2023-06-23T15:33:26.204Z,9.38
2023-06-23T15:35:53.303Z,11.98
2023-06-23T15:38:20.024Z,8.88
2023-06-23T15:40:46.773Z,11.95
2023-06-23T15:43:16.931Z,9.07
2023-06-23T15:45:45.164Z,8.07
2023-06-23T15:48:12.115Z,11.35
2023-06-23T15:50:39.529Z,8.95
2023-06-23T15:53:06.397Z,10.75
2023-06-23T15:55:34.057Z,9.35
2023-06-23T15:58:01.006Z,7.68
2023-06-23T16:00:27.851Z,8.02
2023-06-23T16:02:54.597Z,7.40
2023-06-23T16:05:22.680Z,10.30
2023-06-23T16:07:49.436Z,6.63
2023-06-23T16:10:16.160Z,10.48
2023-06-23T16:12:43.065Z,8.90
2023-06-23T16:15:10.403Z,9.82
2023-06-23T16:17:37.180Z,10.43
2023-06-23T16:20:06.635Z,10.52
2023-06-23T16:22:33.531Z,11.52
2023-06-23T16:25:02.019Z,8.50
2023-06-23T16:27:29.082Z,10.48
2023-06-23T16:29:55.917Z,8.75
2023-06-23T16:32:22.805Z,7.97
2023-06-23T16:34:49.469Z,10.50
2023-06-23T16:37:16.176Z,8.45
2023-06-23T16:39:42.828Z,8.20
2023-06-23T16:42:10.029Z,9.98
2023-06-23T16:44:36.693Z,9.35
2023-06-23T16:47:04.461Z,8.15
2023-06-23T16:49:31.222Z,8.77
2023-06-23T16:51:57.952Z,9.35
2023-06-23T16:54:24.649Z,8.18
2023-06-23T16:56:51.305Z,7.82
2023-06-23T16:59:18.065Z,7.55
2023-06-23T17:01:44.860Z,8.15
2023-06-23T17:04:15.567Z,8.23
2023-06-23T17:06:42.859Z,10.23
2023-06-23T17:09:10.286Z,9.85
2023-06-23T17:11:37.161Z,9.95
2023-06-23T17:14:03.889Z,12.40
2023-06-23T17:16:30.571Z,6.20
2023-06-23T17:18:58.893Z,7.63
2023-06-23T17:21:25.790Z,8.82
2023-06-23T17:23:52.582Z,9.18
2023-06-23T17:26:19.293Z,8.50
2023-06-23T17:28:45.891Z,7.10
2023-06-23T17:31:12.730Z,6.65
2023-06-23T17:33:40.122Z,7.47
2023-06-23T17:36:06.938Z,13.27
2023-06-23T17:38:33.626Z,11.55
2023-06-23T17:41:00.544Z,13.48
2023-06-23T17:43:27.827Z,26.23
2023-06-23T17:45:54.593Z,20.55
2023-06-23T17:48:21.335Z,15.30
2023-06-23T17:50:48.020Z,12.30
2023-06-23T17:53:14.828Z,11.52
2023-06-23T17:55:41.513Z,14.25
2023-06-23T17:58:08.404Z,11.98
2023-06-23T18:00:35.081Z,23.85
2023-06-23T18:03:02.016Z,13.85
2023-06-23T18:05:28.790Z,27.85
2023-06-23T18:07:55.515Z,35.58
2023-06-23T18:10:22.315Z,24.13
2023-06-23T18:12:48.992Z,17.73
2023-06-23T18:15:15.780Z,15.05
2023-06-23T18:17:43.013Z,11.40
2023-06-23T18:20:10.256Z,17.38
2023-06-23T18:22:36.988Z,13.63
2023-06-23T18:25:04.440Z,12.90
2023-06-23T18:27:31.243Z,14.18
2023-06-23T18:29:57.869Z,12.38
2023-06-23T18:32:35.989Z,13.27
2023-06-23T18:35:02.919Z,11.57
2023-06-23T18:37:29.664Z,17.25
2023-06-23T18:39:57.220Z,16.17
2023-06-23T18:42:23.927Z,18.63
2023-06-23T18:44:50.846Z,14.68
2023-06-23T18:47:17.687Z,14.98
2023-06-23T18:49:44.905Z,19.20
2023-06-23T18:52:11.656Z,15.45
2023-06-23T18:54:38.665Z,19.50
2023-06-23T18:57:06.008Z,22.83
2023-06-23T18:59:33.253Z,12.07
2023-06-23T19:01:59.984Z,12.52
2023-06-23T19:04:26.675Z,11.45
2023-06-23T19:06:53.439Z,10.35
2023-06-23T19:09:20.219Z,12.85
2023-06-23T19:11:46.910Z,11.02
2023-06-23T19:14:13.845Z,18.17
2023-06-23T19:16:40.512Z,13.73
2023-06-23T19:19:07.240Z,14.57
2023-06-23T19:21:34.007Z,14.10
2023-06-23T19:24:02.407Z,13.82
2023-06-23T19:26:29.240Z,11.95
2023-06-23T19:28:55.975Z,13.48
2023-06-23T19:31:22.828Z,14.10
2023-06-23T19:33:49.547Z,14.23
2023-06-23T19:36:16.604Z,12.77
2023-06-23T19:38:43.269Z,12.25
2023-06-23T19:41:10.262Z,12.73
2023-06-23T19:43:37.042Z,10.93
2023-06-23T19:46:03.675Z,15.35
2023-06-23T19:48:30.406Z,10.82
2023-06-23T19:50:57.135Z,10.57
2023-06-23T19:53:23.872Z,12.32
2023-06-23T19:55:50.690Z,15.68
2023-06-23T19:58:20.056Z,13.98
2023-06-23T20:00:47.670Z,13.13
2023-06-23T20:03:14.419Z,12.90
2023-06-23T20:05:41.230Z,12.23
2023-06-23T20:08:07.977Z,11.55
2023-06-23T20:10:36.247Z,13.52
2023-06-23T20:13:03.831Z,10.20
2023-06-23T20:15:30.815Z,13.30
2023-06-23T20:17:57.524Z,13.93
2023-06-23T20:20:24.421Z,12.48
2023-06-23T20:22:51.588Z,12.90
2023-06-23T20:25:18.319Z,11.13
2023-06-23T20:27:45.072Z,14.45
2023-06-23T20:30:12.433Z,14.00
2023-06-23T20:32:39.252Z,13.77
2023-06-23T20:35:06.380Z,17.27
2023-06-23T20:37:33.233Z,17.67
2023-06-23T20:40:00.072Z,20.15
2023-06-23T20:42:26.869Z,21.33
2023-06-23T20:44:53.507Z,19.15
2023-06-23T20:47:20.816Z,15.13
2023-06-23T20:49:47.603Z,13.13
2023-06-23T20:52:16.421Z,15.30
2023-06-23T20:54:43.196Z,17.15
2023-06-23T20:57:09.972Z,14.68
2023-06-23T20:59:36.666Z,14.25
2023-06-23T21:02:03.702Z,12.68
2023-06-23T21:04:30.533Z,13.48
2023-06-23T21:06:57.244Z,13.52
2023-06-23T21:09:23.884Z,13.60
2023-06-23T21:11:50.630Z,13.20
2023-06-23T21:14:17.320Z,13.52
2023-06-23T21:16:44.012Z,15.32
2023-06-23T21:19:10.764Z,13.55
2023-06-23T21:21:37.411Z,12.38
2023-06-23T21:24:04.533Z,13.45
2023-06-23T21:26:31.623Z,14.05
2023-06-23T21:28:58.296Z,16.63
2023-06-23T21:31:25.861Z,16.13
2023-06-23T21:33:53.124Z,14.13
2023-06-23T21:36:19.809Z,16.85
2023-06-23T21:38:46.483Z,13.75
2023-06-23T21:41:13.243Z,18.23
2023-06-23T21:43:39.898Z,15.85
2023-06-23T21:46:06.657Z,16.52
2023-06-23T21:48:33.505Z,15.40
2023-06-23T21:51:00.272Z,16.05
2023-06-23T21:53:27.032Z,12.52
2023-06-23T21:55:53.758Z,14.98
2023-06-23T21:58:21.181Z,15.10
2023-06-23T22:00:47.920Z,15.35
2023-06-23T22:03:14.737Z,13.40
2023-06-23T22:05:41.626Z,15.52
2023-06-23T22:08:08.596Z,12.85
2023-06-23T22:10:35.613Z,14.93
2023-06-23T22:13:03.309Z,11.52
2023-06-23T22:15:30.003Z,15.63
2023-06-23T22:17:56.800Z,15.40
2023-06-23T22:20:23.629Z,14.40
2023-06-23T22:22:50.278Z,15.63
2023-06-23T22:25:17.105Z,18.35
2023-06-23T22:27:43.884Z,15.63
2023-06-23T22:30:10.810Z,14.75
2023-06-23T22:32:37.457Z,12.25
2023-06-23T22:35:04.269Z,14.93
2023-06-23T22:37:31.294Z,21.08
2023-06-23T22:39:57.969Z,13.45
2023-06-23T22:42:24.648Z,12.93
2023-06-23T22:44:51.342Z,14.43
2023-06-23T22:47:19.658Z,13.15
2023-06-23T22:49:46.348Z,14.88
2023-06-23T22:52:14.609Z,14.13
2023-06-23T22:54:41.655Z,15.05
2023-06-23T22:57:09.201Z,17.67
2023-06-23T22:59:35.910Z,15.25
2023-06-23T23:02:02.663Z,19.10
2023-06-23T23:04:29.471Z,14.95
2023-06-23T23:06:57.445Z,16.13
2023-06-23T23:09:25.086Z,16.85
2023-06-23T23:11:51.793Z,15.75
2023-06-23T23:14:19.124Z,11.27
2023-06-23T23:16:45.848Z,16.27
2023-06-23T23:19:13.439Z,13.95
2023-06-23T23:21:40.185Z,16.80
2023-06-23T23:24:07.310Z,17.17
2023-06-23T23:26:34.042Z,14.48
2023-06-23T23:29:01.057Z,13.52
2023-06-23T23:31:28.485Z,16.80
2023-06-23T23:34:01.871Z,13.18
2023-06-23T23:36:31.522Z,16.03
2023-06-23T23:38:58.173Z,15.70
2023-06-23T23:41:24.938Z,17.63
2023-06-23T23:43:53.819Z,17.65
2023-06-23T23:46:21.378Z,17.67
2023-06-23T23:48:48.132Z,16.73
2023-06-23T23:51:16.037Z,18.45
2023-06-23T23:53:42.849Z,14.85
2023-06-23T23:56:09.563Z,16.80
2023-06-23T23:58:36.251Z,20.60
